Flight Track Log - Related Links

Times and Time Zones

All times are in EST time to prevent confusion due to time zone crossing. See the GJS6221 flight status page for this flight to view local times or setup timezone preferences in your user account.

Time Position Orientation Groundspeed Altitude Reporting Facility
EST Latitude Longitude Course Direction KTS MPH feet Rate Location/Type
Thu 01:59:09 PM 40.8178 -73.9106 214° Southwest 179 206 1,900  Level New York Center
Thu 02:00:09 PM 40.8608 -73.9428 330° Northwest 224 258 4,300 2,550 Climbing New York Center
Thu 02:01:09 PM 40.8883 -74.0044 301° West 242 278 7,000 2,927 Climbing New York Center
Thu 02:02:12 PM 40.8333 -74.0333 202° Southwest 230 265 10,300 2,293 Climbing New York TRACON
Thu 02:03:12 PM 40.7667 -74.0833 210° Southwest 278 320 11,700 712 Climbing New York TRACON
Thu 02:04:00 PM 40.4108 -74.2286 214° Southwest  Level Estimated
Thu 02:05:09 PM 40.6092 -74.1444 196° South 291 335 12,400  Level New York Center
Thu 02:06:09 PM 40.5297 -74.1594 188° South 305 351 14,300 1,900 Climbing New York Center
Thu 02:07:09 PM 40.4353 -74.1767 188° South 322 371 16,200 1,350 Climbing New York Center
Thu 02:08:09 PM 40.3392 -74.1936 188° South 341 392 17,000 750 Climbing New York Center
Thu 02:09:09 PM 40.2367 -74.1994 182° South 359 413 17,700 1,319 Climbing New York Center
Thu 02:11:11 PM 40.0536 -74.2336 188° South 361 415 21,000 1,600 Climbing Washington Center
Thu 02:12:09 PM 39.9708 -74.2867 206° Southwest 349 402 22,500 1,475 Climbing Washington Center
Thu 02:13:09 PM 39.8967 -74.3528 214° Southwest 333 383 23,900 1,289 Climbing Washington Center
Thu 02:14:10 PM 39.8203 -74.4272 217° Southwest 338 389 25,100 1,180 Climbing Washington Center
Thu 02:15:11 PM 39.7544 -74.5147 226° Southwest 343 395 26,300 1,169 Climbing Washington Center
Thu 02:16:08 PM 39.6906 -74.5992 225° Southwest 336 387 27,400 958 Climbing Washington Center
Thu 02:17:10 PM 39.6247 -74.6864 226° Southwest 341 392 28,200 738 Climbing Washington Center
Thu 02:18:10 PM 39.5567 -74.7761 225° Southwest 341 392 28,900 694 Climbing Washington Center
Thu 02:19:11 PM 39.4883 -74.8683 226° Southwest 352 405 29,600 694 Climbing Washington Center
Thu 02:20:11 PM 39.4014 -74.9442 214° Southwest 370 426 30,300 712 Climbing Washington Center
Thu 02:21:09 PM 39.3119 -75.0175 212° Southwest 381 438 31,000 712 Climbing Washington Center
Thu 02:22:09 PM 39.2228 -75.0906 212° Southwest 388 447 31,700 793 Climbing Washington Center
Thu 02:23:10 PM 39.1314 -75.1608 211° Southwest 388 447 32,600 934 Climbing Washington Center
Thu 02:24:11 PM 39.0400 -75.2308 211° Southwest 388 447 33,600 1,008 Climbing Washington Center
Thu 02:25:09 PM 38.9525 -75.3061 214° Southwest 383 441 34,600 958 Climbing Washington Center
Thu 02:26:10 PM 38.8672 -75.3731 211° Southwest 378 435 35,500 689 Climbing Washington Center
Thu 02:27:11 PM 38.7819 -75.4400 211° Southwest 373 429 36,000 252 Climbing Washington Center
Thu 02:28:09 PM 38.6944 -75.5092 212° Southwest 373 429 36,000 353 Level Washington Center
Thu 02:29:10 PM 38.6069 -75.5758 211° Southwest 373 429 36,700 645 Climbing Washington Center
Thu 02:30:10 PM 38.5214 -75.6447 212° Southwest 373 429 37,300 555 Climbing Washington Center
Thu 02:31:09 PM 38.4358 -75.7136 212° Southwest 368 423 37,800 353 Climbing Washington Center
Thu 02:32:09 PM 38.3503 -75.7797 211° Southwest 363 418 38,000 99 Climbing Washington Center
Thu 02:33:10 PM 38.2500 -75.8481 208° Southwest 369 425 38,000  Level Washington Center
Thu 02:34:11 PM 38.1644 -75.9167 212° Southwest 369 425 38,000  Level Washington Center
Thu 02:35:09 PM 38.0786 -75.9822 211° Southwest 369 425 38,000  Level Washington Center
Thu 02:36:10 PM 37.9992 -76.0422 211° Southwest 374 430 38,000  Level Washington Center
Thu 02:37:10 PM 37.9133 -76.1103 212° Southwest 374 430 38,000  Level Washington Center
Thu 02:38:09 PM 37.8275 -76.1781 212° Southwest 369 425 38,000  Level Washington Center
Thu 02:39:09 PM 37.7397 -76.2406 209° Southwest 369 425 38,000  Level Washington Center
Thu 02:40:10 PM 37.6517 -76.3078 211° Southwest 369 425 38,000  Level Washington Center
Thu 02:41:11 PM 37.5636 -76.3753 211° Southwest 369 425 38,000  Level Washington Center
Thu 02:42:09 PM 37.4736 -76.4422 211° Southwest 369 425 38,000  Level Washington Center
Thu 02:43:10 PM 37.3856 -76.5092 211° Southwest 369 425 38,000  Level Washington Center
Thu 02:44:11 PM 37.2953 -76.5786 211° Southwest 374 430 38,000  Level Washington Center
Thu 02:45:09 PM 37.1986 -76.6506 211° Southwest 374 430 38,000  Level Washington Center
Thu 02:46:09 PM 37.1083 -76.7169 210° Southwest 379 436 38,000  Level Washington Center
Thu 02:47:11 PM 37.0181 -76.7833 210° Southwest 379 436 38,000  Level Washington Center
Thu 02:48:11 PM 36.9297 -76.8519 212° Southwest 379 436 38,000  Level Washington Center
Thu 02:49:11 PM 36.8436 -76.9181 212° Southwest 379 436 38,000  Level Washington Center
Thu 02:50:11 PM 36.7531 -76.9839 210° Southwest 379 436 38,000  Level Washington Center
Thu 02:51:09 PM 36.6667 -77.0575 214° Southwest 379 436 38,000  Level Washington Center
Thu 02:53:10 PM 36.5039 -77.2094 217° Southwest 379 436 38,000  Level Washington Center
Thu 02:54:11 PM 36.4236 -77.2853 217° Southwest 374 430 38,000  Level Washington Center
Thu 02:55:11 PM 36.3433 -77.3608 217° Southwest 369 425 38,000  Level Washington Center
Thu 02:56:09 PM 36.2628 -77.4364 217° Southwest 374 430 38,000  Level Washington Center
Thu 02:57:09 PM 36.1867 -77.5119 219° Southwest 361 415 38,000  Level Washington Center
Thu 02:58:11 PM 36.1061 -77.5869 217° Southwest 361 415 38,000  Level Washington Center
Thu 02:59:11 PM 36.0256 -77.6647 218° Southwest 367 422 38,000  Level Washington Center
Thu 03:00:09 PM 35.9408 -77.7342 214° Southwest 372 428 38,000  Level Washington Center
Thu 03:01:09 PM 35.8561 -77.7986 212° Southwest 377 434 38,000  Level Washington Center
Thu 03:02:10 PM 35.7694 -77.8678 213° Southwest 372 428 38,000  Level Washington Center
Thu 03:03:11 PM 35.6844 -77.9344 213° Southwest 372 428 38,000  Level Washington Center
Thu 03:04:09 PM 35.5978 -78.0008 212° Southwest 372 428 38,000  Level Washington Center
Thu 03:05:10 PM 35.5128 -78.0672 212° Southwest 372 428 38,000  Level Washington Center
Thu 03:06:09 PM 35.4281 -78.1333 212° Southwest 372 428 38,000  Level Washington Center
Thu 03:07:09 PM 35.3431 -78.1994 212° Southwest 372 428 38,000  Level Washington Center
Thu 03:08:11 PM 35.2583 -78.2653 212° Southwest 372 428 38,000  Level Washington Center
Thu 03:09:11 PM 35.1711 -78.3311 212° Southwest 372 428 38,000  Level Washington Center
Thu 03:10:09 PM 35.0883 -78.3969 213° Southwest 372 428 38,000  Level Washington Center
Thu 03:11:10 PM 35.0033 -78.4622 212° Southwest 372 428 38,000  Level Washington Center
Thu 03:12:11 PM 34.9161 -78.5278 212° Southwest 372 428 38,000  Level Washington Center
Thu 03:13:10 PM 34.8311 -78.5956 213° Southwest 372 428 38,000  Level Washington Center
Thu 03:14:10 PM 34.7544 -78.6533 212° Southwest 364 419 38,000  Level Washington Center
Thu 03:15:43 PM 34.6156 -78.7578 212° Southwest 368 423 38,000  Level Jacksonville Center
Thu 03:16:43 PM 34.5344 -78.8297 216° Southwest 368 423 38,000  Level Jacksonville Center
Thu 03:17:43 PM 34.4642 -78.9111 224° Southwest 363 418 38,000  Level Jacksonville Center
Thu 03:18:43 PM 34.3853 -78.9903 220° Southwest 363 418 38,000  Level Jacksonville Center
Thu 03:19:43 PM 34.3083 -79.0692 220° Southwest 368 423 38,000  Level Jacksonville Center
Thu 03:20:43 PM 34.2314 -79.1453 219° Southwest 368 423 38,000 -200 Level Jacksonville Center
Thu 03:21:43 PM 34.1586 -79.2211 221° Southwest 368 423 37,600 -700 Descending Jacksonville Center
Thu 03:22:43 PM 34.0792 -79.2947 218° Southwest 368 423 36,600 -1,000 Descending Jacksonville Center
Thu 03:23:43 PM 34.0022 -79.3756 221° Southwest 368 423 35,600 -1,050 Descending Jacksonville Center
Thu 03:24:43 PM 33.9189 -79.4539 218° Southwest 362 417 34,500 -1,050 Descending Jacksonville Center
Thu 03:25:43 PM 33.8417 -79.5344 221° Southwest 357 411 33,500 -1,000 Descending Jacksonville Center
Thu 03:26:43 PM 33.7625 -79.6100 218° Southwest 362 417 32,500 -1,000 Descending Jacksonville Center
Thu 03:27:43 PM 33.6831 -79.6903 220° Southwest 367 422 31,500 -1,000 Descending Jacksonville Center
Thu 03:28:43 PM 33.6036 -79.7706 220° Southwest 372 428 30,500 -1,000 Descending Jacksonville Center
Thu 03:29:43 PM 33.5244 -79.8531 221° Southwest 377 434 29,500 -1,000 Descending Jacksonville Center
Thu 03:30:43 PM 33.4469 -79.9303 220° Southwest 372 428 28,500 -1,000 Descending Jacksonville Center
Thu 03:31:43 PM 33.3753 -79.9975 218° Southwest 372 428 27,500 -1,000 Descending Jacksonville Center
Thu 03:32:43 PM 33.2978 -80.0744 220° Southwest 372 428 26,500 -1,250 Descending Jacksonville Center
Thu 03:33:43 PM 33.2203 -80.1514 220° Southwest 372 428 25,000 -1,450 Descending Jacksonville Center
Thu 03:34:43 PM 33.1406 -80.2283 219° Southwest 372 428 23,600 -1,450 Descending Jacksonville Center
Thu 03:35:43 PM 33.0586 -80.3075 219° Southwest 378 435 22,100 -1,500 Descending Jacksonville Center
Thu 03:36:43 PM 32.9789 -80.3867 220° Southwest 378 435 20,600 -1,500 Descending Jacksonville Center
Thu 03:37:43 PM 32.8947 -80.4681 219° Southwest 378 435 19,100 -1,350 Descending Jacksonville Center
Thu 03:38:43 PM 32.8169 -80.5444 220° Southwest 378 435 17,900 -1,350 Descending Jacksonville Center
Thu 03:39:43 PM 32.7369 -80.6206 219° Southwest 378 435 16,400 -1,500 Descending Jacksonville Center
Thu 03:40:43 PM 32.6611 -80.6939 219° Southwest 371 427 14,900 -1,500 Descending Jacksonville Center
Thu 03:41:43 PM 32.5850 -80.7672 219° Southwest 371 427 13,400 -1,850 Descending Jacksonville Center
Thu 03:42:43 PM 32.5258 -80.8450 228° Southwest 351 404 11,200 -1,650 Descending Jacksonville Center
Thu 03:43:43 PM 32.4725 -80.9153 228° Southwest 317 365 10,100 -1,450 Descending Jacksonville Center
Thu 03:44:43 PM 32.4297 -80.9825 233° Southwest 272 313 8,300 -1,950 Descending Jacksonville Center
Thu 03:45:43 PM 32.3892 -81.0647 240° Southwest 261 300 6,200 -1,850 Descending Jacksonville Center
Thu 03:46:43 PM 32.3547 -81.1367 240° Southwest 255 293 4,600 -1,600 Descending Jacksonville Center
Thu 03:47:43 PM 32.3203 -81.2061 240° Southwest 250 288 3,000 -1,300 Descending Jacksonville Center
Thu 03:48:43 PM 32.2897 -81.2658 239° Southwest 250 288 2,000 -500 Descending Jacksonville Center
Thu 03:49:43 PM 32.2592 -81.3278 240° Southwest 232 267 2,000  Level Jacksonville Center
Thu 03:51:00 PM 32.1675 -81.2347 139° Southeast  Level FlightAware Approximate
Thu 03:58:00 PM 32.1276 -81.2021 180° South  Level Estimated
Thu 03:59:00 PM 32.1276 -81.2021 180° South  Level Estimated
Thu 04:00:00 PM 32.1276 -81.2021 180° South  Level Estimated
Thu 04:01:00 PM 32.1276 -81.2021 180° South  Level Estimated
Thu 04:02:00 PM 32.1276 -81.2021 180° South  Level Estimated
Thu 04:03:00 PM 32.1276 -81.2021 180° South  Level Estimated
Thu 04:04:00 PM 32.1276 -81.2021 180° South  Level Estimated
Thu 04:05:00 PM 32.1276 -81.2021 180° South  Level Estimated

Login

Don't have an account? Register now (free) for customized features, flight alerts, and more!